sensor_id;sensor_type;location;lat;lon;timestamp;P1;durP1;ratioP1;P2;durP2;ratioP2
23866;SDS011;12114;53.404;-1.502;2023-04-12T00:02:10;5.53;;;0.73;;
23866;SDS011;12114;53.404;-1.502;2023-04-12T00:04:55;3.90;;;0.77;;
23866;SDS011;12114;53.404;-1.502;2023-04-12T00:07:40;2.10;;;0.50;;
23866;SDS011;12114;53.404;-1.502;2023-04-12T00:10:29;4.10;;;1.17;;
23866;SDS011;12114;53.404;-1.502;2023-04-12T00:13:13;6.78;;;1.20;;
23866;SDS011;12114;53.404;-1.502;2023-04-12T00:15:58;5.05;;;0.98;;
23866;SDS011;12114;53.404;-1.502;2023-04-12T00:18:42;3.17;;;0.68;;
23866;SDS011;12114;53.404;-1.502;2023-04-12T00:24:12;3.63;;;0.60;;
23866;SDS011;12114;53.404;-1.502;2023-04-12T00:26:56;2.25;;;0.60;;
23866;SDS011;12114;53.404;-1.502;2023-04-12T00:29:41;2.72;;;0.50;;
23866;SDS011;12114;53.404;-1.502;2023-04-12T00:32:25;1.40;;;0.40;;
23866;SDS011;12114;53.404;-1.502;2023-04-12T00:35:10;2.58;;;0.40;;
23866;SDS011;12114;53.404;-1.502;2023-04-12T00:37:54;1.63;;;0.40;;
23866;SDS011;12114;53.404;-1.502;2023-04-12T00:40:41;2.10;;;0.32;;
23866;SDS011;12114;53.404;-1.502;2023-04-12T00:43:25;3.28;;;0.50;;
23866;SDS011;12114;53.404;-1.502;2023-04-12T00:46:10;3.00;;;0.88;;
23866;SDS011;12114;53.404;-1.502;2023-04-12T00:48:55;4.15;;;0.60;;
23866;SDS011;12114;53.404;-1.502;2023-04-12T00:51:40;2.97;;;0.75;;
23866;SDS011;12114;53.404;-1.502;2023-04-12T00:54:24;4.80;;;0.68;;
23866;SDS011;12114;53.404;-1.502;2023-04-12T00:57:08;2.38;;;0.80;;
23866;SDS011;12114;53.404;-1.502;2023-04-12T00:59:52;4.53;;;1.00;;
23866;SDS011;12114;53.404;-1.502;2023-04-12T01:02:36;8.23;;;1.27;;
23866;SDS011;12114;53.404;-1.502;2023-04-12T01:05:22;4.20;;;0.75;;
23866;SDS011;12114;53.404;-1.502;2023-04-12T01:11:00;5.32;;;1.20;;
23866;SDS011;12114;53.404;-1.502;2023-04-12T01:19:25;7.95;;;1.00;;
23866;SDS011;12114;53.404;-1.502;2023-04-12T01:27:52;6.20;;;1.00;;
23866;SDS011;12114;53.404;-1.502;2023-04-12T01:30:36;5.55;;;1.48;;
23866;SDS011;12114;53.404;-1.502;2023-04-12T01:33:20;5.32;;;1.15;;
23866;SDS011;12114;53.404;-1.502;2023-04-12T01:36:15;5.72;;;1.27;;
23866;SDS011;12114;53.404;-1.502;2023-04-12T01:38:59;12.65;;;1.17;;
23866;SDS011;12114;53.404;-1.502;2023-04-12T01:41:44;6.28;;;1.38;;
23866;SDS011;12114;53.404;-1.502;2023-04-12T01:44:31;10.57;;;1.40;;
23866;SDS011;12114;53.404;-1.502;2023-04-12T01:47:15;4.85;;;1.00;;
23866;SDS011;12114;53.404;-1.502;2023-04-12T01:52:53;9.93;;;1.35;;
23866;SDS011;12114;53.404;-1.502;2023-04-12T01:55:42;11.95;;;1.73;;
23866;SDS011;12114;53.404;-1.502;2023-04-12T01:58:28;5.68;;;1.10;;
23866;SDS011;12114;53.404;-1.502;2023-04-12T02:01:14;6.10;;;1.33;;
23866;SDS011;12114;53.404;-1.502;2023-04-12T02:03:58;8.57;;;1.35;;
23866;SDS011;12114;53.404;-1.502;2023-04-12T02:06:43;5.10;;;1.17;;
23866;SDS011;12114;53.404;-1.502;2023-04-12T02:09:27;4.93;;;1.07;;
23866;SDS011;12114;53.404;-1.502;2023-04-12T02:12:11;6.72;;;1.45;;
23866;SDS011;12114;53.404;-1.502;2023-04-12T02:14:56;10.25;;;1.25;;
23866;SDS011;12114;53.404;-1.502;2023-04-12T02:17:40;8.60;;;1.48;;
23866;SDS011;12114;53.404;-1.502;2023-04-12T02:20:24;7.32;;;1.20;;
23866;SDS011;12114;53.404;-1.502;2023-04-12T02:23:08;12.88;;;1.50;;
23866;SDS011;12114;53.404;-1.502;2023-04-12T02:25:52;6.10;;;1.75;;
23866;SDS011;12114;53.404;-1.502;2023-04-12T02:28:37;9.75;;;1.13;;
23866;SDS011;12114;53.404;-1.502;2023-04-12T02:31:21;9.75;;;1.35;;
23866;SDS011;12114;53.404;-1.502;2023-04-12T02:34:06;11.00;;;1.33;;
23866;SDS011;12114;53.404;-1.502;2023-04-12T02:36:50;10.27;;;1.30;;
23866;SDS011;12114;53.404;-1.502;2023-04-12T02:39:34;7.10;;;1.10;;
23866;SDS011;12114;53.404;-1.502;2023-04-12T02:42:18;11.40;;;1.48;;
23866;SDS011;12114;53.404;-1.502;2023-04-12T02:45:03;8.40;;;1.42;;
23866;SDS011;12114;53.404;-1.502;2023-04-12T02:47:47;5.32;;;1.20;;
23866;SDS011;12114;53.404;-1.502;2023-04-12T02:50:31;10.50;;;1.20;;
23866;SDS011;12114;53.404;-1.502;2023-04-12T02:53:15;9.85;;;1.42;;
23866;SDS011;12114;53.404;-1.502;2023-04-12T02:55:59;8.10;;;1.30;;
23866;SDS011;12114;53.404;-1.502;2023-04-12T02:58:45;7.22;;;1.27;;
23866;SDS011;12114;53.404;-1.502;2023-04-12T03:01:28;8.73;;;1.45;;
23866;SDS011;12114;53.404;-1.502;2023-04-12T03:04:13;10.20;;;1.13;;
23866;SDS011;12114;53.404;-1.502;2023-04-12T03:06:58;10.50;;;1.77;;
23866;SDS011;12114;53.404;-1.502;2023-04-12T03:09:42;9.90;;;1.70;;
23866;SDS011;12114;53.404;-1.502;2023-04-12T03:12:27;11.43;;;2.13;;
23866;SDS011;12114;53.404;-1.502;2023-04-12T03:15:11;8.10;;;1.42;;
23866;SDS011;12114;53.404;-1.502;2023-04-12T03:17:55;10.18;;;1.42;;
23866;SDS011;12114;53.404;-1.502;2023-04-12T03:20:39;6.80;;;1.55;;
23866;SDS011;12114;53.404;-1.502;2023-04-12T03:23:26;12.02;;;1.75;;
23866;SDS011;12114;53.404;-1.502;2023-04-12T03:26:10;6.55;;;1.50;;
23866;SDS011;12114;53.404;-1.502;2023-04-12T03:28:57;11.15;;;1.30;;
23866;SDS011;12114;53.404;-1.502;2023-04-12T03:31:41;11.98;;;1.38;;
23866;SDS011;12114;53.404;-1.502;2023-04-12T03:34:25;9.20;;;1.63;;
23866;SDS011;12114;53.404;-1.502;2023-04-12T03:37:14;6.93;;;1.40;;
23866;SDS011;12114;53.404;-1.502;2023-04-12T03:39:58;6.60;;;1.20;;
23866;SDS011;12114;53.404;-1.502;2023-04-12T03:42:42;12.10;;;1.75;;
23866;SDS011;12114;53.404;-1.502;2023-04-12T03:45:26;11.30;;;1.65;;
23866;SDS011;12114;53.404;-1.502;2023-04-12T03:48:10;8.32;;;1.75;;
23866;SDS011;12114;53.404;-1.502;2023-04-12T03:50:54;6.57;;;1.17;;
23866;SDS011;12114;53.404;-1.502;2023-04-12T03:53:38;13.73;;;1.73;;
23866;SDS011;12114;53.404;-1.502;2023-04-12T03:56:22;11.00;;;1.48;;
23866;SDS011;12114;53.404;-1.502;2023-04-12T03:59:06;6.57;;;1.48;;
23866;SDS011;12114;53.404;-1.502;2023-04-12T04:01:50;7.82;;;1.00;;
23866;SDS011;12114;53.404;-1.502;2023-04-12T04:04:34;8.10;;;1.17;;
23866;SDS011;12114;53.404;-1.502;2023-04-12T04:07:20;8.20;;;1.33;;
23866;SDS011;12114;53.404;-1.502;2023-04-12T04:10:05;8.88;;;1.20;;
23866;SDS011;12114;53.404;-1.502;2023-04-12T04:12:49;8.85;;;1.27;;
23866;SDS011;12114;53.404;-1.502;2023-04-12T04:15:33;5.13;;;1.27;;
23866;SDS011;12114;53.404;-1.502;2023-04-12T04:18:16;7.95;;;1.02;;
23866;SDS011;12114;53.404;-1.502;2023-04-12T04:21:00;3.83;;;0.90;;
23866;SDS011;12114;53.404;-1.502;2023-04-12T04:23:44;9.15;;;1.10;;
23866;SDS011;12114;53.404;-1.502;2023-04-12T04:26:30;4.88;;;0.82;;
23866;SDS011;12114;53.404;-1.502;2023-04-12T04:29:17;7.10;;;1.08;;
23866;SDS011;12114;53.404;-1.502;2023-04-12T04:32:01;4.75;;;1.08;;
23866;SDS011;12114;53.404;-1.502;2023-04-12T04:34:45;4.72;;;1.10;;
23866;SDS011;12114;53.404;-1.502;2023-04-12T04:37:29;4.60;;;0.90;;
23866;SDS011;12114;53.404;-1.502;2023-04-12T04:40:13;4.15;;;0.90;;
23866;SDS011;12114;53.404;-1.502;2023-04-12T04:42:58;5.28;;;0.95;;
23866;SDS011;12114;53.404;-1.502;2023-04-12T04:45:42;5.55;;;1.00;;
23866;SDS011;12114;53.404;-1.502;2023-04-12T04:48:26;6.82;;;0.85;;
23866;SDS011;12114;53.404;-1.502;2023-04-12T04:51:12;10.80;;;0.90;;
23866;SDS011;12114;53.404;-1.502;2023-04-12T04:53:57;6.53;;;1.58;;
23866;SDS011;12114;53.404;-1.502;2023-04-12T04:56:41;3.90;;;0.80;;
23866;SDS011;12114;53.404;-1.502;2023-04-12T04:59:25;7.93;;;1.40;;
23866;SDS011;12114;53.404;-1.502;2023-04-12T05:02:09;8.25;;;0.80;;
23866;SDS011;12114;53.404;-1.502;2023-04-12T05:04:53;7.28;;;1.00;;
23866;SDS011;12114;53.404;-1.502;2023-04-12T05:07:42;2.83;;;1.15;;
23866;SDS011;12114;53.404;-1.502;2023-04-12T05:10:27;4.32;;;0.73;;
23866;SDS011;12114;53.404;-1.502;2023-04-12T05:13:11;4.90;;;0.70;;
23866;SDS011;12114;53.404;-1.502;2023-04-12T05:15:55;5.53;;;1.10;;
23866;SDS011;12114;53.404;-1.502;2023-04-12T05:18:39;7.03;;;0.88;;
23866;SDS011;12114;53.404;-1.502;2023-04-12T05:21:23;4.65;;;0.70;;
23866;SDS011;12114;53.404;-1.502;2023-04-12T05:24:07;4.80;;;1.10;;
23866;SDS011;12114;53.404;-1.502;2023-04-12T05:26:51;6.10;;;1.00;;
23866;SDS011;12114;53.404;-1.502;2023-04-12T05:29:35;4.32;;;1.08;;
23866;SDS011;12114;53.404;-1.502;2023-04-12T05:32:19;6.05;;;1.10;;
23866;SDS011;12114;53.404;-1.502;2023-04-12T05:35:03;10.30;;;1.20;;
23866;SDS011;12114;53.404;-1.502;2023-04-12T05:37:47;7.45;;;1.48;;
23866;SDS011;12114;53.404;-1.502;2023-04-12T05:40:31;4.30;;;1.15;;
23866;SDS011;12114;53.404;-1.502;2023-04-12T05:43:15;7.30;;;1.20;;
23866;SDS011;12114;53.404;-1.502;2023-04-12T05:48:44;6.28;;;0.95;;
23866;SDS011;12114;53.404;-1.502;2023-04-12T05:51:28;7.25;;;1.02;;
23866;SDS011;12114;53.404;-1.502;2023-04-12T05:54:12;2.72;;;0.90;;
23866;SDS011;12114;53.404;-1.502;2023-04-12T05:56:56;11.57;;;1.70;;
23866;SDS011;12114;53.404;-1.502;2023-04-12T05:59:40;5.35;;;1.02;;
23866;SDS011;12114;53.404;-1.502;2023-04-12T06:02:24;8.43;;;1.02;;
23866;SDS011;12114;53.404;-1.502;2023-04-12T06:05:08;9.13;;;1.20;;
23866;SDS011;12114;53.404;-1.502;2023-04-12T06:07:53;14.87;;;1.97;;
23866;SDS011;12114;53.404;-1.502;2023-04-12T06:10:37;5.78;;;1.30;;
23866;SDS011;12114;53.404;-1.502;2023-04-12T06:13:21;8.23;;;1.30;;
23866;SDS011;12114;53.404;-1.502;2023-04-12T06:16:05;5.15;;;0.95;;
23866;SDS011;12114;53.404;-1.502;2023-04-12T06:18:49;6.05;;;1.10;;
23866;SDS011;12114;53.404;-1.502;2023-04-12T06:21:33;5.93;;;1.00;;
23866;SDS011;12114;53.404;-1.502;2023-04-12T06:24:17;8.82;;;0.93;;
23866;SDS011;12114;53.404;-1.502;2023-04-12T06:27:01;10.50;;;1.80;;
23866;SDS011;12114;53.404;-1.502;2023-04-12T06:29:45;8.48;;;1.63;;
23866;SDS011;12114;53.404;-1.502;2023-04-12T06:32:29;11.15;;;1.63;;
23866;SDS011;12114;53.404;-1.502;2023-04-12T06:35:13;7.35;;;1.60;;
23866;SDS011;12114;53.404;-1.502;2023-04-12T06:37:57;5.15;;;0.80;;
23866;SDS011;12114;53.404;-1.502;2023-04-12T06:40:41;4.22;;;0.93;;
23866;SDS011;12114;53.404;-1.502;2023-04-12T06:43:25;5.00;;;0.80;;
23866;SDS011;12114;53.404;-1.502;2023-04-12T06:46:09;6.47;;;1.33;;
23866;SDS011;12114;53.404;-1.502;2023-04-12T06:48:53;4.45;;;0.90;;
23866;SDS011;12114;53.404;-1.502;2023-04-12T06:51:37;6.97;;;1.20;;
23866;SDS011;12114;53.404;-1.502;2023-04-12T06:54:21;3.83;;;1.02;;
23866;SDS011;12114;53.404;-1.502;2023-04-12T06:57:10;7.38;;;0.90;;
23866;SDS011;12114;53.404;-1.502;2023-04-12T06:59:54;6.70;;;1.08;;
23866;SDS011;12114;53.404;-1.502;2023-04-12T07:02:38;7.45;;;1.10;;
23866;SDS011;12114;53.404;-1.502;2023-04-12T07:05:22;5.07;;;1.00;;
23866;SDS011;12114;53.404;-1.502;2023-04-12T07:08:06;5.05;;;1.02;;
23866;SDS011;12114;53.404;-1.502;2023-04-12T07:10:54;4.53;;;0.90;;
23866;SDS011;12114;53.404;-1.502;2023-04-12T07:13:37;3.38;;;0.75;;
23866;SDS011;12114;53.404;-1.502;2023-04-12T07:16:21;7.13;;;1.30;;
23866;SDS011;12114;53.404;-1.502;2023-04-12T07:19:05;4.82;;;0.77;;
23866;SDS011;12114;53.404;-1.502;2023-04-12T07:21:50;5.38;;;0.88;;
23866;SDS011;12114;53.404;-1.502;2023-04-12T07:24:34;6.45;;;1.33;;
23866;SDS011;12114;53.404;-1.502;2023-04-12T07:27:18;3.30;;;0.82;;
23866;SDS011;12114;53.404;-1.502;2023-04-12T07:30:02;5.70;;;1.10;;
23866;SDS011;12114;53.404;-1.502;2023-04-12T07:32:46;3.05;;;1.20;;
23866;SDS011;12114;53.404;-1.502;2023-04-12T07:35:31;3.95;;;1.00;;
23866;SDS011;12114;53.404;-1.502;2023-04-12T07:38:15;9.82;;;1.40;;
23866;SDS011;12114;53.404;-1.502;2023-04-12T07:40:59;5.72;;;0.70;;
23866;SDS011;12114;53.404;-1.502;2023-04-12T07:43:43;4.25;;;1.00;;
23866;SDS011;12114;53.404;-1.502;2023-04-12T07:46:27;4.68;;;0.98;;
23866;SDS011;12114;53.404;-1.502;2023-04-12T07:49:11;6.30;;;0.77;;
23866;SDS011;12114;53.404;-1.502;2023-04-12T07:51:55;4.03;;;0.70;;
23866;SDS011;12114;53.404;-1.502;2023-04-12T07:54:40;4.40;;;0.95;;
23866;SDS011;12114;53.404;-1.502;2023-04-12T07:57:25;6.65;;;1.17;;
23866;SDS011;12114;53.404;-1.502;2023-04-12T08:00:09;4.30;;;0.95;;
23866;SDS011;12114;53.404;-1.502;2023-04-12T08:02:54;5.65;;;0.90;;
23866;SDS011;12114;53.404;-1.502;2023-04-12T08:05:39;2.17;;;0.60;;
23866;SDS011;12114;53.404;-1.502;2023-04-12T08:08:23;5.18;;;1.00;;
23866;SDS011;12114;53.404;-1.502;2023-04-12T08:11:07;5.18;;;0.77;;
23866;SDS011;12114;53.404;-1.502;2023-04-12T08:13:51;4.93;;;1.33;;
23866;SDS011;12114;53.404;-1.502;2023-04-12T08:16:35;8.35;;;1.02;;
23866;SDS011;12114;53.404;-1.502;2023-04-12T08:19:19;5.45;;;1.10;;
23866;SDS011;12114;53.404;-1.502;2023-04-12T08:22:03;7.32;;;1.00;;
23866;SDS011;12114;53.404;-1.502;2023-04-12T08:24:47;4.55;;;0.80;;
23866;SDS011;12114;53.404;-1.502;2023-04-12T08:27:31;4.40;;;1.27;;
23866;SDS011;12114;53.404;-1.502;2023-04-12T08:30:15;6.40;;;0.90;;
23866;SDS011;12114;53.404;-1.502;2023-04-12T08:32:59;4.40;;;0.82;;
23866;SDS011;12114;53.404;-1.502;2023-04-12T08:35:43;6.53;;;1.05;;
23866;SDS011;12114;53.404;-1.502;2023-04-12T08:38:27;6.80;;;0.75;;
23866;SDS011;12114;53.404;-1.502;2023-04-12T08:41:11;4.18;;;0.80;;
23866;SDS011;12114;53.404;-1.502;2023-04-12T08:43:55;3.17;;;0.88;;
23866;SDS011;12114;53.404;-1.502;2023-04-12T08:46:40;4.85;;;0.73;;
23866;SDS011;12114;53.404;-1.502;2023-04-12T08:49:25;5.20;;;1.00;;
23866;SDS011;12114;53.404;-1.502;2023-04-12T08:52:09;6.43;;;0.93;;
23866;SDS011;12114;53.404;-1.502;2023-04-12T08:54:54;5.63;;;0.90;;
23866;SDS011;12114;53.404;-1.502;2023-04-12T08:57:38;3.30;;;0.98;;
23866;SDS011;12114;53.404;-1.502;2023-04-12T09:00:23;7.35;;;1.20;;
23866;SDS011;12114;53.404;-1.502;2023-04-12T09:03:08;3.83;;;0.80;;
23866;SDS011;12114;53.404;-1.502;2023-04-12T09:05:55;2.22;;;0.90;;
23866;SDS011;12114;53.404;-1.502;2023-04-12T09:08:55;4.82;;;0.90;;
23866;SDS011;12114;53.404;-1.502;2023-04-12T09:11:39;5.50;;;0.80;;
23866;SDS011;12114;53.404;-1.502;2023-04-12T09:14:23;3.85;;;0.80;;
23866;SDS011;12114;53.404;-1.502;2023-04-12T09:17:20;4.60;;;1.20;;
23866;SDS011;12114;53.404;-1.502;2023-04-12T09:20:25;2.90;;;0.60;;
23866;SDS011;12114;53.404;-1.502;2023-04-12T09:23:15;6.30;;;1.02;;
23866;SDS011;12114;53.404;-1.502;2023-04-12T09:26:00;7.57;;;0.98;;
23866;SDS011;12114;53.404;-1.502;2023-04-12T09:28:44;5.25;;;0.70;;
23866;SDS011;12114;53.404;-1.502;2023-04-12T09:31:28;2.58;;;1.02;;
23866;SDS011;12114;53.404;-1.502;2023-04-12T09:34:13;5.60;;;0.90;;
23866;SDS011;12114;53.404;-1.502;2023-04-12T09:36:57;2.78;;;0.80;;
23866;SDS011;12114;53.404;-1.502;2023-04-12T09:39:41;6.15;;;1.00;;
23866;SDS011;12114;53.404;-1.502;2023-04-12T09:42:25;3.10;;;0.82;;
23866;SDS011;12114;53.404;-1.502;2023-04-12T09:45:19;6.43;;;1.25;;
23866;SDS011;12114;53.404;-1.502;2023-04-12T09:48:04;5.28;;;1.08;;
23866;SDS011;12114;53.404;-1.502;2023-04-12T09:50:49;3.57;;;0.80;;
23866;SDS011;12114;53.404;-1.502;2023-04-12T09:53:40;3.60;;;0.73;;
23866;SDS011;12114;53.404;-1.502;2023-04-12T09:56:33;7.78;;;1.00;;
23866;SDS011;12114;53.404;-1.502;2023-04-12T09:59:18;3.95;;;1.02;;
23866;SDS011;12114;53.404;-1.502;2023-04-12T10:02:13;6.97;;;1.20;;
23866;SDS011;12114;53.404;-1.502;2023-04-12T10:04:58;6.20;;;1.10;;
23866;SDS011;12114;53.404;-1.502;2023-04-12T10:07:42;10.60;;;1.52;;
23866;SDS011;12114;53.404;-1.502;2023-04-12T10:10:26;7.60;;;1.60;;
23866;SDS011;12114;53.404;-1.502;2023-04-12T10:13:11;11.02;;;1.90;;
23866;SDS011;12114;53.404;-1.502;2023-04-12T10:15:55;7.93;;;1.45;;
23866;SDS011;12114;53.404;-1.502;2023-04-12T10:18:39;11.85;;;2.22;;
23866;SDS011;12114;53.404;-1.502;2023-04-12T10:21:23;9.30;;;1.30;;
23866;SDS011;12114;53.404;-1.502;2023-04-12T10:24:08;5.32;;;1.33;;
23866;SDS011;12114;53.404;-1.502;2023-04-12T10:26:52;4.78;;;1.13;;
23866;SDS011;12114;53.404;-1.502;2023-04-12T10:29:38;11.07;;;1.40;;
23866;SDS011;12114;53.404;-1.502;2023-04-12T10:32:24;8.50;;;1.88;;
23866;SDS011;12114;53.404;-1.502;2023-04-12T10:35:08;7.20;;;1.38;;
23866;SDS011;12114;53.404;-1.502;2023-04-12T10:38:04;4.80;;;0.95;;
23866;SDS011;12114;53.404;-1.502;2023-04-12T10:43:51;3.50;;;0.75;;
23866;SDS011;12114;53.404;-1.502;2023-04-12T10:49:22;5.10;;;1.00;;
23866;SDS011;12114;53.404;-1.502;2023-04-12T10:52:09;11.48;;;1.40;;
23866;SDS011;12114;53.404;-1.502;2023-04-12T10:54:54;3.67;;;1.13;;
23866;SDS011;12114;53.404;-1.502;2023-04-12T10:57:44;4.90;;;1.17;;
23866;SDS011;12114;53.404;-1.502;2023-04-12T11:03:32;8.68;;;1.30;;
23866;SDS011;12114;53.404;-1.502;2023-04-12T11:06:17;7.50;;;1.50;;
23866;SDS011;12114;53.404;-1.502;2023-04-12T11:09:01;4.65;;;1.52;;
23866;SDS011;12114;53.404;-1.502;2023-04-12T11:11:45;5.18;;;1.33;;
23866;SDS011;12114;53.404;-1.502;2023-04-12T11:14:33;12.10;;;1.50;;
23866;SDS011;12114;53.404;-1.502;2023-04-12T11:17:18;10.82;;;1.40;;
23866;SDS011;12114;53.404;-1.502;2023-04-12T11:20:03;6.22;;;1.30;;
23866;SDS011;12114;53.404;-1.502;2023-04-12T11:22:48;4.97;;;1.30;;
23866;SDS011;12114;53.404;-1.502;2023-04-12T11:25:33;7.10;;;1.15;;
23866;SDS011;12114;53.404;-1.502;2023-04-12T11:28:17;7.03;;;1.10;;
23866;SDS011;12114;53.404;-1.502;2023-04-12T11:31:01;9.27;;;1.58;;
23866;SDS011;12114;53.404;-1.502;2023-04-12T11:33:45;5.78;;;1.42;;
23866;SDS011;12114;53.404;-1.502;2023-04-12T11:36:29;7.88;;;1.35;;
23866;SDS011;12114;53.404;-1.502;2023-04-12T11:39:13;6.85;;;1.67;;
23866;SDS011;12114;53.404;-1.502;2023-04-12T11:41:57;6.13;;;1.55;;
23866;SDS011;12114;53.404;-1.502;2023-04-12T11:44:45;9.73;;;1.40;;
23866;SDS011;12114;53.404;-1.502;2023-04-12T11:47:29;6.97;;;1.33;;
23866;SDS011;12114;53.404;-1.502;2023-04-12T11:50:26;10.55;;;1.45;;
23866;SDS011;12114;53.404;-1.502;2023-04-12T11:53:11;8.00;;;1.30;;
23866;SDS011;12114;53.404;-1.502;2023-04-12T11:55:58;9.55;;;1.40;;
23866;SDS011;12114;53.404;-1.502;2023-04-12T11:58:42;9.40;;;1.63;;
23866;SDS011;12114;53.404;-1.502;2023-04-12T12:01:29;5.22;;;1.38;;
23866;SDS011;12114;53.404;-1.502;2023-04-12T12:04:14;6.10;;;1.50;;
23866;SDS011;12114;53.404;-1.502;2023-04-12T12:06:58;7.55;;;1.52;;
23866;SDS011;12114;53.404;-1.502;2023-04-12T12:09:43;6.25;;;1.27;;
23866;SDS011;12114;53.404;-1.502;2023-04-12T12:12:27;8.13;;;2.15;;
23866;SDS011;12114;53.404;-1.502;2023-04-12T12:15:13;8.43;;;1.58;;
23866;SDS011;12114;53.404;-1.502;2023-04-12T12:17:57;5.10;;;1.33;;
23866;SDS011;12114;53.404;-1.502;2023-04-12T12:20:48;7.00;;;1.30;;
23866;SDS011;12114;53.404;-1.502;2023-04-12T12:23:32;6.63;;;1.50;;
23866;SDS011;12114;53.404;-1.502;2023-04-12T12:26:20;6.72;;;1.38;;
23866;SDS011;12114;53.404;-1.502;2023-04-12T12:29:05;4.68;;;1.05;;
23866;SDS011;12114;53.404;-1.502;2023-04-12T12:31:51;4.55;;;1.25;;
23866;SDS011;12114;53.404;-1.502;2023-04-12T12:34:36;9.20;;;1.40;;
23866;SDS011;12114;53.404;-1.502;2023-04-12T12:37:24;4.72;;;0.93;;
23866;SDS011;12114;53.404;-1.502;2023-04-12T12:40:09;5.03;;;1.10;;
23866;SDS011;12114;53.404;-1.502;2023-04-12T12:42:56;7.20;;;1.20;;
23866;SDS011;12114;53.404;-1.502;2023-04-12T12:45:39;7.00;;;1.67;;
23866;SDS011;12114;53.404;-1.502;2023-04-12T12:48:24;5.07;;;1.40;;
23866;SDS011;12114;53.404;-1.502;2023-04-12T12:51:08;4.45;;;0.82;;
23866;SDS011;12114;53.404;-1.502;2023-04-12T12:53:52;3.67;;;1.00;;
23866;SDS011;12114;53.404;-1.502;2023-04-12T12:56:36;4.43;;;1.17;;
23866;SDS011;12114;53.404;-1.502;2023-04-12T12:59:20;7.65;;;1.45;;
23866;SDS011;12114;53.404;-1.502;2023-04-12T13:02:04;3.25;;;0.65;;
23866;SDS011;12114;53.404;-1.502;2023-04-12T13:04:49;4.30;;;0.80;;
23866;SDS011;12114;53.404;-1.502;2023-04-12T13:07:33;3.55;;;0.63;;
23866;SDS011;12114;53.404;-1.502;2023-04-12T13:10:17;2.78;;;0.70;;
23866;SDS011;12114;53.404;-1.502;2023-04-12T13:13:01;4.00;;;0.73;;
23866;SDS011;12114;53.404;-1.502;2023-04-12T13:15:46;7.10;;;1.10;;
23866;SDS011;12114;53.404;-1.502;2023-04-12T13:18:30;4.50;;;1.08;;
23866;SDS011;12114;53.404;-1.502;2023-04-12T13:21:14;6.75;;;1.08;;
23866;SDS011;12114;53.404;-1.502;2023-04-12T13:23:58;5.03;;;1.08;;
23866;SDS011;12114;53.404;-1.502;2023-04-12T13:26:43;4.47;;;1.17;;
23866;SDS011;12114;53.404;-1.502;2023-04-12T13:29:27;6.63;;;1.58;;
23866;SDS011;12114;53.404;-1.502;2023-04-12T13:32:10;4.78;;;0.82;;
23866;SDS011;12114;53.404;-1.502;2023-04-12T13:34:56;4.63;;;1.33;;
23866;SDS011;12114;53.404;-1.502;2023-04-12T13:37:40;3.45;;;0.90;;
23866;SDS011;12114;53.404;-1.502;2023-04-12T13:40:25;3.40;;;0.75;;
23866;SDS011;12114;53.404;-1.502;2023-04-12T13:43:08;4.93;;;0.93;;
23866;SDS011;12114;53.404;-1.502;2023-04-12T13:45:53;6.65;;;1.20;;
23866;SDS011;12114;53.404;-1.502;2023-04-12T13:48:37;8.30;;;1.40;;
23866;SDS011;12114;53.404;-1.502;2023-04-12T13:51:20;5.70;;;1.10;;
23866;SDS011;12114;53.404;-1.502;2023-04-12T13:54:05;6.13;;;1.33;;
23866;SDS011;12114;53.404;-1.502;2023-04-12T13:56:49;5.35;;;0.88;;
23866;SDS011;12114;53.404;-1.502;2023-04-12T13:59:33;5.15;;;1.10;;
23866;SDS011;12114;53.404;-1.502;2023-04-12T14:02:16;5.30;;;1.15;;
23866;SDS011;12114;53.404;-1.502;2023-04-12T14:05:00;5.95;;;1.17;;
23866;SDS011;12114;53.404;-1.502;2023-04-12T14:07:44;3.03;;;0.80;;
23866;SDS011;12114;53.404;-1.502;2023-04-12T14:10:30;6.90;;;1.10;;
23866;SDS011;12114;53.404;-1.502;2023-04-12T14:13:14;5.57;;;1.17;;
23866;SDS011;12114;53.404;-1.502;2023-04-12T14:15:59;2.80;;;0.70;;
23866;SDS011;12114;53.404;-1.502;2023-04-12T14:18:43;3.05;;;0.90;;
23866;SDS011;12114;53.404;-1.502;2023-04-12T14:21:27;5.63;;;1.20;;
23866;SDS011;12114;53.404;-1.502;2023-04-12T14:24:11;5.78;;;0.73;;
23866;SDS011;12114;53.404;-1.502;2023-04-12T14:26:55;1.88;;;0.63;;
23866;SDS011;12114;53.404;-1.502;2023-04-12T14:29:40;2.42;;;0.40;;
23866;SDS011;12114;53.404;-1.502;2023-04-12T14:32:23;2.22;;;0.50;;
23866;SDS011;12114;53.404;-1.502;2023-04-12T14:35:08;2.13;;;0.75;;
23866;SDS011;12114;53.404;-1.502;2023-04-12T14:37:52;3.30;;;0.80;;
23866;SDS011;12114;53.404;-1.502;2023-04-12T14:40:36;2.30;;;0.50;;
23866;SDS011;12114;53.404;-1.502;2023-04-12T14:43:20;2.97;;;0.60;;
23866;SDS011;12114;53.404;-1.502;2023-04-12T14:46:04;3.08;;;0.50;;
23866;SDS011;12114;53.404;-1.502;2023-04-12T14:48:48;2.55;;;0.63;;
23866;SDS011;12114;53.404;-1.502;2023-04-12T14:51:32;2.80;;;0.82;;
23866;SDS011;12114;53.404;-1.502;2023-04-12T14:54:16;2.55;;;0.77;;
23866;SDS011;12114;53.404;-1.502;2023-04-12T14:57:00;2.53;;;0.60;;
23866;SDS011;12114;53.404;-1.502;2023-04-12T14:59:44;3.55;;;0.90;;
23866;SDS011;12114;53.404;-1.502;2023-04-12T15:02:28;3.35;;;0.73;;
23866;SDS011;12114;53.404;-1.502;2023-04-12T15:05:12;2.05;;;0.80;;
23866;SDS011;12114;53.404;-1.502;2023-04-12T15:07:56;3.00;;;0.60;;
23866;SDS011;12114;53.404;-1.502;2023-04-12T15:10:40;4.38;;;1.27;;
23866;SDS011;12114;53.404;-1.502;2023-04-12T15:13:24;4.35;;;1.15;;
23866;SDS011;12114;53.404;-1.502;2023-04-12T15:18:55;4.40;;;1.00;;
23866;SDS011;12114;53.404;-1.502;2023-04-12T15:21:39;3.85;;;0.90;;
23866;SDS011;12114;53.404;-1.502;2023-04-12T15:24:23;3.65;;;0.90;;
23866;SDS011;12114;53.404;-1.502;2023-04-12T15:27:07;2.58;;;0.70;;
23866;SDS011;12114;53.404;-1.502;2023-04-12T15:29:51;2.40;;;0.50;;
23866;SDS011;12114;53.404;-1.502;2023-04-12T15:32:35;1.65;;;0.47;;
23866;SDS011;12114;53.404;-1.502;2023-04-12T15:35:20;2.80;;;0.80;;
23866;SDS011;12114;53.404;-1.502;2023-04-12T15:38:04;2.60;;;0.82;;
23866;SDS011;12114;53.404;-1.502;2023-04-12T15:40:58;1.45;;;0.40;;
23866;SDS011;12114;53.404;-1.502;2023-04-12T15:43:42;1.40;;;0.40;;
23866;SDS011;12114;53.404;-1.502;2023-04-12T15:46:32;1.42;;;0.30;;
23866;SDS011;12114;53.404;-1.502;2023-04-12T15:49:16;2.72;;;0.40;;
23866;SDS011;12114;53.404;-1.502;2023-04-12T15:52:01;1.35;;;0.60;;
23866;SDS011;12114;53.404;-1.502;2023-04-12T15:54:45;0.83;;;0.43;;
23866;SDS011;12114;53.404;-1.502;2023-04-12T15:57:29;1.15;;;0.73;;
23866;SDS011;12114;53.404;-1.502;2023-04-12T16:00:13;1.95;;;0.57;;
23866;SDS011;12114;53.404;-1.502;2023-04-12T16:03:07;1.20;;;0.73;;
23866;SDS011;12114;53.404;-1.502;2023-04-12T16:05:51;3.85;;;0.80;;
23866;SDS011;12114;53.404;-1.502;2023-04-12T16:08:36;2.60;;;0.70;;
23866;SDS011;12114;53.404;-1.502;2023-04-12T16:11:21;2.78;;;0.70;;
23866;SDS011;12114;53.404;-1.502;2023-04-12T16:14:06;2.60;;;1.00;;
23866;SDS011;12114;53.404;-1.502;2023-04-12T16:16:51;2.05;;;0.60;;
23866;SDS011;12114;53.404;-1.502;2023-04-12T16:19:35;1.75;;;0.45;;
23866;SDS011;12114;53.404;-1.502;2023-04-12T16:22:19;1.77;;;0.70;;
23866;SDS011;12114;53.404;-1.502;2023-04-12T16:25:03;1.65;;;0.60;;
23866;SDS011;12114;53.404;-1.502;2023-04-12T16:27:48;1.60;;;0.65;;
23866;SDS011;12114;53.404;-1.502;2023-04-12T16:30:33;2.97;;;0.70;;
23866;SDS011;12114;53.404;-1.502;2023-04-12T16:33:17;0.88;;;0.50;;
23866;SDS011;12114;53.404;-1.502;2023-04-12T16:36:02;2.78;;;0.93;;
23866;SDS011;12114;53.404;-1.502;2023-04-12T16:38:46;1.27;;;0.60;;
23866;SDS011;12114;53.404;-1.502;2023-04-12T16:41:32;1.38;;;0.52;;
23866;SDS011;12114;53.404;-1.502;2023-04-12T16:44:16;1.95;;;1.10;;
23866;SDS011;12114;53.404;-1.502;2023-04-12T16:47:03;3.83;;;1.00;;
23866;SDS011;12114;53.404;-1.502;2023-04-12T16:49:48;3.35;;;1.00;;
23866;SDS011;12114;53.404;-1.502;2023-04-12T16:52:32;3.85;;;1.02;;